青森 の空港の天気 - METARとTAF

青森空港 ( RJSA / AOJ ) - 青森県青森市
飛行場実況気象(Metar)
観測時間01/17 15:00 JST (01/17 06:00 UTC)
風向・風速南西 4m/s
視程10km以上
天気現象
少しの雲 雲底高度 910m
全天の8割程度の雲 雲底高度 1520m
気温-1℃
湿度64%
気圧1022hPa
METARRJSA 170600Z 23008KT 9999 FEW030 BKN050 M01/M07 Q1022
過去の天気等 Google飛行場航空写真 Wunderground天気予報

過去48時間のMETAR

飛行場予報(TAF)
発表時間: 1/17 14:07 JST (1/17 05:07 UTC)
予報対象時間: 17日15時 JST ~ 18日21時 JST
風向・風速南南西 3m/s
視程10km以上
天気現象弱いしゅう雪
少しの雲 雲底高度 300m
全天の8割程度の雲 雲底高度 610m
全天の8割程度の雲 雲底高度 910m
17日18時 JST ~ 17日24時 JST に一時的に
視程3,000m
天気現象弱いしゅう雪
18日3時 JST ~ 18日6時 JST に一時的に
視程2,000m
天気現象弱いしゅう雪
18日15時 JST ~ 18日18時 JST に徐々に
風向・風速北東 2m/s
18日18時 JST ~ 18日21時 JST に一時的に
視程3,000m
天気現象弱いしゅう雪
少しの雲 雲底高度 60m
全天の8割程度の雲 雲底高度 240m
全天の8割程度の雲 雲底高度 460m
TAF RJSA 170507Z 1706/1812 20005KT 9999 -SHSN FEW010 BKN020 BKN030
TEMPO 1709/1715 3000 -SHSN
TEMPO 1718/1721 2000 -SHSN
BECMG 1806/1809 05003KT
TEMPO 1809/1812 3000 -SHSN FEW002 BKN008 BKN015
日本の空港のMETAR・TAFへのリンク

RJTT 東京国際空港
RJAA 新東京国際空港
RJBB 関西国際空港
RJOO 大阪空港
RJGG 中部国際空港
RJCC 新千歳空港
RJFF 福岡空港
ROAH 那覇空港


RJEC 旭川空港
RJCH 函館空港
RJCK 釧路空港
RJCM 女満別空港
RJCB 帯広空港
RJSA 青森空港
RJSS 仙台空港
RJSK 秋田空港
RJSF 福島空港
RJAH 茨城空港
RJSN 新潟空港
RJNT 富山空港
RJNK 小松飛行場
RJNS 静岡空港
RJOH 美保飛行場
RJOC 出雲空港
RJOB 岡山空港
RJOA 広島空港
RJOI 岩国飛行場
RJOT 高松空港
RJOM 松山空港
RJOK 高知空港
RJFR 北九州空港
RJFT 熊本空港
RJFU 長崎空港
RJFS 佐賀空港
RJFO 大分空港
RJFM 宮崎空港
RJFK 鹿児島空港
ROIG 石垣島空港
RJTY 横田飛行場
ROTM 普天間飛行場
RODN 嘉手納飛行場